Flugplatz Schweighofen

Für EDRO sind keine METAR/TAF Berichte vorhanden.
Es werden die Flugwettermeldungen vom Flugplatz Karlsruhe Baden-Baden in 28 km Entfernung angezeigt.

Bericht für EDSB

vom 30.03. um 22:50 UTC

variable Windrichtung mit 2 kt

Sichtweite 10 km oder mehr

keine Wolken

Temperatur -1.0°C

Taupunkt -7.0°C

Luftfeuchtigkeit 64%

Luftdruck 1025 hPa

EDSB 302250Z AUTO VRB02KT 9999 NCD M01/M07 Q1025

Prognose für EDSB

vom 30.03. um 17:00 UTC

Am 30.03. zwischen 18:00 UTC und 06:00 UTC

Wind 7 kt aus 40°

Sichtweite 10 km oder mehr

keine signifikanten Wettererscheinungen

keine Wolken


Zwischen 06:00 und 09:00 UTC übergehend zu

Wind 12 kt aus 30°

Sichtweite 10 km oder mehr

keine signifikanten Wettererscheinungen

keine Wolken

TAF EDSB 301700Z 3018/3118 04007KT CAVOK BECMG 3106/3109 03012KT
Impressum